sensor_id;sensor_type;location;lat;lon;timestamp;temperature;humidity
5429;DHT22;2737;52.386;9.980;2022-12-10T00:01:35;-0.80;99.90
5429;DHT22;2737;52.386;9.980;2022-12-10T00:04:02;-0.80;99.90
5429;DHT22;2737;52.386;9.980;2022-12-10T00:06:33;-0.80;99.90
5429;DHT22;2737;52.386;9.980;2022-12-10T00:09:01;-0.80;99.90
5429;DHT22;2737;52.386;9.980;2022-12-10T00:11:30;-0.70;99.90
5429;DHT22;2737;52.386;9.980;2022-12-10T00:13:58;-0.70;99.90
5429;DHT22;2737;52.386;9.980;2022-12-10T00:16:26;-0.70;99.90
5429;DHT22;2737;52.386;9.980;2022-12-10T00:18:54;-0.70;99.90
5429;DHT22;2737;52.386;9.980;2022-12-10T00:21:23;-0.70;99.90
5429;DHT22;2737;52.386;9.980;2022-12-10T00:23:51;-0.70;99.90
5429;DHT22;2737;52.386;9.980;2022-12-10T00:26:19;-0.80;99.90
5429;DHT22;2737;52.386;9.980;2022-12-10T00:28:49;-0.90;99.90
5429;DHT22;2737;52.386;9.980;2022-12-10T00:31:17;-0.80;99.90
5429;DHT22;2737;52.386;9.980;2022-12-10T00:33:46;-0.90;99.90
5429;DHT22;2737;52.386;9.980;2022-12-10T00:36:15;-0.80;99.90
5429;DHT22;2737;52.386;9.980;2022-12-10T00:38:43;-0.90;99.90
5429;DHT22;2737;52.386;9.980;2022-12-10T00:41:11;-0.90;99.90
5429;DHT22;2737;52.386;9.980;2022-12-10T00:43:39;-0.90;99.90
5429;DHT22;2737;52.386;9.980;2022-12-10T00:46:09;-0.90;99.90
5429;DHT22;2737;52.386;9.980;2022-12-10T00:48:36;-1.00;99.90
5429;DHT22;2737;52.386;9.980;2022-12-10T00:51:05;-1.00;99.90
5429;DHT22;2737;52.386;9.980;2022-12-10T00:53:34;-1.00;99.90
5429;DHT22;2737;52.386;9.980;2022-12-10T00:56:02;-1.00;99.90
5429;DHT22;2737;52.386;9.980;2022-12-10T00:58:31;-1.00;99.90
5429;DHT22;2737;52.386;9.980;2022-12-10T01:01:08;-1.10;99.90
5429;DHT22;2737;52.386;9.980;2022-12-10T01:03:37;-1.10;99.90
5429;DHT22;2737;52.386;9.980;2022-12-10T01:06:09;-1.10;99.90
5429;DHT22;2737;52.386;9.980;2022-12-10T01:08:36;-1.00;99.90
5429;DHT22;2737;52.386;9.980;2022-12-10T01:11:03;-1.10;99.90
5429;DHT22;2737;52.386;9.980;2022-12-10T01:13:30;-1.10;99.90
5429;DHT22;2737;52.386;9.980;2022-12-10T01:16:00;-1.00;99.90
5429;DHT22;2737;52.386;9.980;2022-12-10T01:18:29;-1.10;99.90
5429;DHT22;2737;52.386;9.980;2022-12-10T01:21:00;-1.10;99.90
5429;DHT22;2737;52.386;9.980;2022-12-10T01:23:28;-1.10;99.90
5429;DHT22;2737;52.386;9.980;2022-12-10T01:25:59;-1.10;99.90
5429;DHT22;2737;52.386;9.980;2022-12-10T01:28:29;-1.20;99.90
5429;DHT22;2737;52.386;9.980;2022-12-10T01:31:00;-1.20;99.90
5429;DHT22;2737;52.386;9.980;2022-12-10T01:33:27;-1.20;99.90
5429;DHT22;2737;52.386;9.980;2022-12-10T01:35:55;-1.20;99.90
5429;DHT22;2737;52.386;9.980;2022-12-10T01:38:22;-1.20;99.90
5429;DHT22;2737;52.386;9.980;2022-12-10T01:40:49;-1.20;99.90
5429;DHT22;2737;52.386;9.980;2022-12-10T01:43:16;-1.20;99.90
5429;DHT22;2737;52.386;9.980;2022-12-10T01:45:43;-1.20;99.90
5429;DHT22;2737;52.386;9.980;2022-12-10T01:48:11;-1.20;99.90
5429;DHT22;2737;52.386;9.980;2022-12-10T01:50:38;-1.20;99.90
5429;DHT22;2737;52.386;9.980;2022-12-10T01:53:07;-1.30;99.90
5429;DHT22;2737;52.386;9.980;2022-12-10T01:55:39;-1.30;99.90
5429;DHT22;2737;52.386;9.980;2022-12-10T01:58:06;-1.30;99.90
5429;DHT22;2737;52.386;9.980;2022-12-10T02:00:38;-1.30;99.90
5429;DHT22;2737;52.386;9.980;2022-12-10T02:03:14;-1.40;99.90
5429;DHT22;2737;52.386;9.980;2022-12-10T02:05:47;-1.30;99.90
5429;DHT22;2737;52.386;9.980;2022-12-10T02:08:26;-1.30;99.90
5429;DHT22;2737;52.386;9.980;2022-12-10T02:11:01;-1.30;99.90
5429;DHT22;2737;52.386;9.980;2022-12-10T02:13:36;-1.30;99.90
5429;DHT22;2737;52.386;9.980;2022-12-10T02:16:09;-1.30;99.90
5429;DHT22;2737;52.386;9.980;2022-12-10T02:18:43;-1.20;99.90
5429;DHT22;2737;52.386;9.980;2022-12-10T02:21:16;-1.30;99.90
5429;DHT22;2737;52.386;9.980;2022-12-10T02:23:47;-1.20;99.90
5429;DHT22;2737;52.386;9.980;2022-12-10T02:26:20;-1.30;99.90
5429;DHT22;2737;52.386;9.980;2022-12-10T02:28:53;-1.30;99.90
5429;DHT22;2737;52.386;9.980;2022-12-10T02:31:26;-1.20;99.90
5429;DHT22;2737;52.386;9.980;2022-12-10T02:33:58;-1.30;99.90
5429;DHT22;2737;52.386;9.980;2022-12-10T02:36:30;-1.30;99.90
5429;DHT22;2737;52.386;9.980;2022-12-10T02:39:01;-1.30;99.90
5429;DHT22;2737;52.386;9.980;2022-12-10T02:41:33;-1.30;99.90
5429;DHT22;2737;52.386;9.980;2022-12-10T02:44:03;-1.30;99.90
5429;DHT22;2737;52.386;9.980;2022-12-10T02:46:34;-1.40;99.90
5429;DHT22;2737;52.386;9.980;2022-12-10T02:49:06;-1.30;99.90
5429;DHT22;2737;52.386;9.980;2022-12-10T02:51:33;-1.30;99.90
5429;DHT22;2737;52.386;9.980;2022-12-10T02:54:03;-1.30;99.90
5429;DHT22;2737;52.386;9.980;2022-12-10T02:56:34;-1.40;99.90
5429;DHT22;2737;52.386;9.980;2022-12-10T02:59:09;-1.30;99.90
5429;DHT22;2737;52.386;9.980;2022-12-10T03:01:48;-1.30;99.90
5429;DHT22;2737;52.386;9.980;2022-12-10T03:04:23;-1.40;99.90
5429;DHT22;2737;52.386;9.980;2022-12-10T03:06:54;-1.40;99.90
5429;DHT22;2737;52.386;9.980;2022-12-10T03:09:27;-1.40;99.90
5429;DHT22;2737;52.386;9.980;2022-12-10T03:12:01;-1.40;99.90
5429;DHT22;2737;52.386;9.980;2022-12-10T03:14:30;-1.40;99.90
5429;DHT22;2737;52.386;9.980;2022-12-10T03:17:00;-1.30;99.90
5429;DHT22;2737;52.386;9.980;2022-12-10T03:19:32;-1.30;99.90
5429;DHT22;2737;52.386;9.980;2022-12-10T03:22:02;-1.40;99.90
5429;DHT22;2737;52.386;9.980;2022-12-10T03:24:30;-1.40;99.90
5429;DHT22;2737;52.386;9.980;2022-12-10T03:26:59;-1.40;99.90
5429;DHT22;2737;52.386;9.980;2022-12-10T03:29:33;-1.40;99.90
5429;DHT22;2737;52.386;9.980;2022-12-10T03:32:02;-1.30;99.90
5429;DHT22;2737;52.386;9.980;2022-12-10T03:34:29;-1.30;99.90
5429;DHT22;2737;52.386;9.980;2022-12-10T03:36:57;-1.30;99.90
5429;DHT22;2737;52.386;9.980;2022-12-10T03:39:25;-1.30;99.90
5429;DHT22;2737;52.386;9.980;2022-12-10T03:41:53;-1.30;99.90
5429;DHT22;2737;52.386;9.980;2022-12-10T03:44:28;-1.20;99.90
5429;DHT22;2737;52.386;9.980;2022-12-10T03:46:55;-1.20;99.90
5429;DHT22;2737;52.386;9.980;2022-12-10T03:49:24;-1.30;99.90
5429;DHT22;2737;52.386;9.980;2022-12-10T03:51:51;-1.30;99.90
5429;DHT22;2737;52.386;9.980;2022-12-10T03:54:18;-1.30;99.90
5429;DHT22;2737;52.386;9.980;2022-12-10T03:56:46;-1.30;99.90
5429;DHT22;2737;52.386;9.980;2022-12-10T03:59:13;-1.30;99.90
5429;DHT22;2737;52.386;9.980;2022-12-10T04:01:40;-1.50;99.90
5429;DHT22;2737;52.386;9.980;2022-12-10T04:04:08;-1.40;99.90
5429;DHT22;2737;52.386;9.980;2022-12-10T04:06:37;-1.30;99.90
5429;DHT22;2737;52.386;9.980;2022-12-10T04:09:04;-1.30;99.90
5429;DHT22;2737;52.386;9.980;2022-12-10T04:11:31;-1.30;99.90
5429;DHT22;2737;52.386;9.980;2022-12-10T04:13:58;-1.30;99.90
5429;DHT22;2737;52.386;9.980;2022-12-10T04:16:43;-1.30;99.90
5429;DHT22;2737;52.386;9.980;2022-12-10T04:19:12;-1.30;99.90
5429;DHT22;2737;52.386;9.980;2022-12-10T04:21:42;-1.30;99.90
5429;DHT22;2737;52.386;9.980;2022-12-10T04:24:29;-1.30;99.90
5429;DHT22;2737;52.386;9.980;2022-12-10T04:27:18;-1.20;99.90
5429;DHT22;2737;52.386;9.980;2022-12-10T04:29:45;-1.40;99.90
5429;DHT22;2737;52.386;9.980;2022-12-10T04:32:12;-1.60;99.90
5429;DHT22;2737;52.386;9.980;2022-12-10T04:34:39;-1.60;99.90
5429;DHT22;2737;52.386;9.980;2022-12-10T04:37:08;-1.70;99.90
5429;DHT22;2737;52.386;9.980;2022-12-10T04:39:37;-1.70;99.90
5429;DHT22;2737;52.386;9.980;2022-12-10T04:42:04;-1.50;99.90
5429;DHT22;2737;52.386;9.980;2022-12-10T04:44:32;-1.60;99.90
5429;DHT22;2737;52.386;9.980;2022-12-10T04:46:59;-1.60;99.90
5429;DHT22;2737;52.386;9.980;2022-12-10T04:49:27;-1.60;99.90
5429;DHT22;2737;52.386;9.980;2022-12-10T04:51:54;-1.70;99.90
5429;DHT22;2737;52.386;9.980;2022-12-10T04:54:23;-1.50;99.90
5429;DHT22;2737;52.386;9.980;2022-12-10T04:56:50;-1.60;99.90
5429;DHT22;2737;52.386;9.980;2022-12-10T04:59:17;-1.70;99.90
5429;DHT22;2737;52.386;9.980;2022-12-10T05:01:44;-1.60;99.90
5429;DHT22;2737;52.386;9.980;2022-12-10T05:04:14;-1.60;99.90
5429;DHT22;2737;52.386;9.980;2022-12-10T05:06:41;-1.60;99.90
5429;DHT22;2737;52.386;9.980;2022-12-10T05:09:10;-1.60;99.90
5429;DHT22;2737;52.386;9.980;2022-12-10T05:11:39;-1.60;99.90
5429;DHT22;2737;52.386;9.980;2022-12-10T05:14:06;-1.60;99.90
5429;DHT22;2737;52.386;9.980;2022-12-10T05:16:34;-1.60;99.90
5429;DHT22;2737;52.386;9.980;2022-12-10T05:19:01;-1.70;99.90
5429;DHT22;2737;52.386;9.980;2022-12-10T05:21:29;-1.70;99.90
5429;DHT22;2737;52.386;9.980;2022-12-10T05:24:18;-1.70;99.90
5429;DHT22;2737;52.386;9.980;2022-12-10T05:26:46;-1.60;99.90
5429;DHT22;2737;52.386;9.980;2022-12-10T05:29:17;-1.60;99.90
5429;DHT22;2737;52.386;9.980;2022-12-10T05:31:44;-1.50;99.90
5429;DHT22;2737;52.386;9.980;2022-12-10T05:34:11;-1.60;99.90
5429;DHT22;2737;52.386;9.980;2022-12-10T05:36:38;-1.70;99.90
5429;DHT22;2737;52.386;9.980;2022-12-10T05:39:06;-1.70;99.90
5429;DHT22;2737;52.386;9.980;2022-12-10T05:41:36;-1.80;99.90
5429;DHT22;2737;52.386;9.980;2022-12-10T05:44:05;-1.80;99.90
5429;DHT22;2737;52.386;9.980;2022-12-10T05:46:34;-1.80;99.90
5429;DHT22;2737;52.386;9.980;2022-12-10T05:49:03;-1.90;99.90
5429;DHT22;2737;52.386;9.980;2022-12-10T05:51:31;-1.90;99.90
5429;DHT22;2737;52.386;9.980;2022-12-10T05:54:00;-1.80;99.90
5429;DHT22;2737;52.386;9.980;2022-12-10T05:56:29;-1.80;99.90
5429;DHT22;2737;52.386;9.980;2022-12-10T05:58:58;-1.80;99.90
5429;DHT22;2737;52.386;9.980;2022-12-10T06:01:29;-1.70;99.90
5429;DHT22;2737;52.386;9.980;2022-12-10T06:03:57;-1.70;99.90
5429;DHT22;2737;52.386;9.980;2022-12-10T06:06:27;-1.80;99.90
5429;DHT22;2737;52.386;9.980;2022-12-10T06:08:54;-1.70;99.90
5429;DHT22;2737;52.386;9.980;2022-12-10T06:11:22;-1.70;99.90
5429;DHT22;2737;52.386;9.980;2022-12-10T06:13:49;-1.70;99.90
5429;DHT22;2737;52.386;9.980;2022-12-10T06:16:16;-1.70;99.90
5429;DHT22;2737;52.386;9.980;2022-12-10T06:18:45;-1.70;99.90
5429;DHT22;2737;52.386;9.980;2022-12-10T06:21:14;-1.80;99.90
5429;DHT22;2737;52.386;9.980;2022-12-10T06:23:42;-1.70;99.90
5429;DHT22;2737;52.386;9.980;2022-12-10T06:26:10;-1.70;99.90
5429;DHT22;2737;52.386;9.980;2022-12-10T06:28:38;-1.70;99.90
5429;DHT22;2737;52.386;9.980;2022-12-10T06:31:06;-1.70;99.90
5429;DHT22;2737;52.386;9.980;2022-12-10T06:33:33;-1.70;99.90
5429;DHT22;2737;52.386;9.980;2022-12-10T06:36:03;-1.60;99.90
5429;DHT22;2737;52.386;9.980;2022-12-10T06:38:30;-1.60;99.90
5429;DHT22;2737;52.386;9.980;2022-12-10T06:40:57;-1.60;99.90
5429;DHT22;2737;52.386;9.980;2022-12-10T06:43:27;-1.50;99.90
5429;DHT22;2737;52.386;9.980;2022-12-10T06:45:54;-1.50;99.90
5429;DHT22;2737;52.386;9.980;2022-12-10T06:48:21;-1.40;99.90
5429;DHT22;2737;52.386;9.980;2022-12-10T06:50:48;-1.40;99.90
5429;DHT22;2737;52.386;9.980;2022-12-10T06:53:17;-1.40;99.90
5429;DHT22;2737;52.386;9.980;2022-12-10T06:55:44;-1.40;99.90
5429;DHT22;2737;52.386;9.980;2022-12-10T06:58:11;-1.40;99.90
5429;DHT22;2737;52.386;9.980;2022-12-10T07:00:38;-1.30;99.90
5429;DHT22;2737;52.386;9.980;2022-12-10T07:03:05;-1.30;99.90
5429;DHT22;2737;52.386;9.980;2022-12-10T07:05:32;-1.40;99.90
5429;DHT22;2737;52.386;9.980;2022-12-10T07:07:59;-1.40;99.90
5429;DHT22;2737;52.386;9.980;2022-12-10T07:10:27;-1.40;99.90
5429;DHT22;2737;52.386;9.980;2022-12-10T07:12:54;-1.40;99.90
5429;DHT22;2737;52.386;9.980;2022-12-10T07:15:22;-1.40;99.90
5429;DHT22;2737;52.386;9.980;2022-12-10T07:17:50;-1.30;99.90
5429;DHT22;2737;52.386;9.980;2022-12-10T07:20:17;-1.30;99.90
5429;DHT22;2737;52.386;9.980;2022-12-10T07:22:45;-1.40;99.90
5429;DHT22;2737;52.386;9.980;2022-12-10T07:25:12;-1.30;99.90
5429;DHT22;2737;52.386;9.980;2022-12-10T07:27:40;-1.40;99.90
5429;DHT22;2737;52.386;9.980;2022-12-10T07:30:09;-1.40;99.90
5429;DHT22;2737;52.386;9.980;2022-12-10T07:32:36;-1.40;99.90
5429;DHT22;2737;52.386;9.980;2022-12-10T07:35:03;-1.50;99.90
5429;DHT22;2737;52.386;9.980;2022-12-10T07:37:30;-1.50;99.90
5429;DHT22;2737;52.386;9.980;2022-12-10T07:39:57;-1.40;99.90
5429;DHT22;2737;52.386;9.980;2022-12-10T07:42:24;-1.40;99.90
5429;DHT22;2737;52.386;9.980;2022-12-10T07:44:53;-1.30;99.90
5429;DHT22;2737;52.386;9.980;2022-12-10T07:47:20;-1.40;99.90
5429;DHT22;2737;52.386;9.980;2022-12-10T07:49:47;-1.40;99.90
5429;DHT22;2737;52.386;9.980;2022-12-10T07:52:14;-1.30;99.90
5429;DHT22;2737;52.386;9.980;2022-12-10T07:54:41;-1.30;99.90
5429;DHT22;2737;52.386;9.980;2022-12-10T07:57:08;-1.40;99.90
5429;DHT22;2737;52.386;9.980;2022-12-10T07:59:35;-1.40;99.90
5429;DHT22;2737;52.386;9.980;2022-12-10T08:02:04;-1.30;99.90
5429;DHT22;2737;52.386;9.980;2022-12-10T08:04:31;-1.40;99.90
5429;DHT22;2737;52.386;9.980;2022-12-10T08:06:58;-1.40;99.90
5429;DHT22;2737;52.386;9.980;2022-12-10T08:09:25;-1.40;99.90
5429;DHT22;2737;52.386;9.980;2022-12-10T08:11:52;-1.40;99.90
5429;DHT22;2737;52.386;9.980;2022-12-10T08:14:19;-1.40;99.90
5429;DHT22;2737;52.386;9.980;2022-12-10T08:16:46;-1.40;99.90
5429;DHT22;2737;52.386;9.980;2022-12-10T08:19:15;-1.40;99.90
5429;DHT22;2737;52.386;9.980;2022-12-10T08:21:42;-1.50;99.90
5429;DHT22;2737;52.386;9.980;2022-12-10T08:24:09;-1.50;99.90
5429;DHT22;2737;52.386;9.980;2022-12-10T08:26:36;-1.50;99.90
5429;DHT22;2737;52.386;9.980;2022-12-10T08:29:04;-1.50;99.90
5429;DHT22;2737;52.386;9.980;2022-12-10T08:31:31;-1.50;99.90
5429;DHT22;2737;52.386;9.980;2022-12-10T08:33:58;-1.50;99.90
5429;DHT22;2737;52.386;9.980;2022-12-10T08:36:26;-1.40;99.90
5429;DHT22;2737;52.386;9.980;2022-12-10T08:38:55;-1.50;99.90
5429;DHT22;2737;52.386;9.980;2022-12-10T08:41:22;-1.40;99.90
5429;DHT22;2737;52.386;9.980;2022-12-10T08:43:51;-1.40;99.90
5429;DHT22;2737;52.386;9.980;2022-12-10T08:46:18;-1.40;99.90
5429;DHT22;2737;52.386;9.980;2022-12-10T08:48:45;-1.40;99.90
5429;DHT22;2737;52.386;9.980;2022-12-10T08:51:15;-1.40;99.90
5429;DHT22;2737;52.386;9.980;2022-12-10T08:53:44;-1.50;99.90
5429;DHT22;2737;52.386;9.980;2022-12-10T08:56:12;-1.40;99.90
5429;DHT22;2737;52.386;9.980;2022-12-10T08:58:39;-1.40;99.90
5429;DHT22;2737;52.386;9.980;2022-12-10T09:01:07;-1.40;99.90
5429;DHT22;2737;52.386;9.980;2022-12-10T09:03:34;-1.40;99.90
5429;DHT22;2737;52.386;9.980;2022-12-10T09:06:03;-1.40;99.90
5429;DHT22;2737;52.386;9.980;2022-12-10T09:08:31;-1.40;99.90
5429;DHT22;2737;52.386;9.980;2022-12-10T09:11:04;-1.50;99.90
5429;DHT22;2737;52.386;9.980;2022-12-10T09:13:31;-1.40;99.90
5429;DHT22;2737;52.386;9.980;2022-12-10T09:15:58;-1.40;99.90
5429;DHT22;2737;52.386;9.980;2022-12-10T09:18:25;-1.40;99.90
5429;DHT22;2737;52.386;9.980;2022-12-10T09:20:52;-1.40;99.90
5429;DHT22;2737;52.386;9.980;2022-12-10T09:23:19;-1.40;99.90
5429;DHT22;2737;52.386;9.980;2022-12-10T09:25:47;-1.50;99.90
5429;DHT22;2737;52.386;9.980;2022-12-10T09:28:15;-1.50;99.90
5429;DHT22;2737;52.386;9.980;2022-12-10T09:30:42;-1.50;99.90
5429;DHT22;2737;52.386;9.980;2022-12-10T09:33:09;-1.40;99.90
5429;DHT22;2737;52.386;9.980;2022-12-10T09:35:40;-1.40;99.90
5429;DHT22;2737;52.386;9.980;2022-12-10T09:38:07;-1.40;99.90
5429;DHT22;2737;52.386;9.980;2022-12-10T09:40:40;-1.40;99.90
5429;DHT22;2737;52.386;9.980;2022-12-10T09:43:16;-1.40;99.90
5429;DHT22;2737;52.386;9.980;2022-12-10T09:45:54;-1.40;99.90
5429;DHT22;2737;52.386;9.980;2022-12-10T09:48:30;-1.40;99.90
5429;DHT22;2737;52.386;9.980;2022-12-10T09:51:04;-1.40;99.90
5429;DHT22;2737;52.386;9.980;2022-12-10T09:53:36;-1.40;99.90
5429;DHT22;2737;52.386;9.980;2022-12-10T09:56:04;-1.30;99.90
5429;DHT22;2737;52.386;9.980;2022-12-10T09:58:34;-1.40;99.90
5429;DHT22;2737;52.386;9.980;2022-12-10T10:01:05;-1.30;99.90
5429;DHT22;2737;52.386;9.980;2022-12-10T10:03:37;-1.20;99.90
5429;DHT22;2737;52.386;9.980;2022-12-10T10:06:05;-1.20;99.90
5429;DHT22;2737;52.386;9.980;2022-12-10T10:08:35;-1.10;99.90
5429;DHT22;2737;52.386;9.980;2022-12-10T10:11:03;-1.10;99.90
5429;DHT22;2737;52.386;9.980;2022-12-10T10:13:35;-1.10;99.90
5429;DHT22;2737;52.386;9.980;2022-12-10T10:16:23;-1.00;99.90
5429;DHT22;2737;52.386;9.980;2022-12-10T10:18:56;-1.10;99.90
5429;DHT22;2737;52.386;9.980;2022-12-10T10:21:26;-1.00;99.90
5429;DHT22;2737;52.386;9.980;2022-12-10T10:23:56;-1.00;99.90
5429;DHT22;2737;52.386;9.980;2022-12-10T10:26:24;-1.00;99.90
5429;DHT22;2737;52.386;9.980;2022-12-10T10:28:57;-1.00;99.90
5429;DHT22;2737;52.386;9.980;2022-12-10T10:31:27;-1.00;99.90
5429;DHT22;2737;52.386;9.980;2022-12-10T10:33:56;-1.20;99.90
5429;DHT22;2737;52.386;9.980;2022-12-10T10:36:26;-1.10;99.90
5429;DHT22;2737;52.386;9.980;2022-12-10T10:38:54;-1.10;99.90
5429;DHT22;2737;52.386;9.980;2022-12-10T10:41:23;-1.00;99.90
5429;DHT22;2737;52.386;9.980;2022-12-10T10:43:59;-1.00;99.90
5429;DHT22;2737;52.386;9.980;2022-12-10T10:46:27;-1.10;99.90
5429;DHT22;2737;52.386;9.980;2022-12-10T10:49:13;-1.10;99.90
5429;DHT22;2737;52.386;9.980;2022-12-10T10:51:43;-1.10;99.90
5429;DHT22;2737;52.386;9.980;2022-12-10T10:54:11;-1.10;99.90
5429;DHT22;2737;52.386;9.980;2022-12-10T10:56:40;-1.10;99.90
5429;DHT22;2737;52.386;9.980;2022-12-10T10:59:28;-1.10;99.90
5429;DHT22;2737;52.386;9.980;2022-12-10T11:02:01;-1.00;99.90
5429;DHT22;2737;52.386;9.980;2022-12-10T11:04:35;-1.10;99.90
5429;DHT22;2737;52.386;9.980;2022-12-10T11:07:05;-1.10;99.90
5429;DHT22;2737;52.386;9.980;2022-12-10T11:09:40;-1.00;99.90
5429;DHT22;2737;52.386;9.980;2022-12-10T11:12:29;-1.00;99.90
5429;DHT22;2737;52.386;9.980;2022-12-10T11:15:00;-1.10;99.90
5429;DHT22;2737;52.386;9.980;2022-12-10T11:17:28;-1.10;99.90
5429;DHT22;2737;52.386;9.980;2022-12-10T11:19:58;-1.00;99.90
5429;DHT22;2737;52.386;9.980;2022-12-10T11:22:27;-1.00;99.90
5429;DHT22;2737;52.386;9.980;2022-12-10T11:24:55;-1.10;99.90
5429;DHT22;2737;52.386;9.980;2022-12-10T11:27:36;-1.20;99.90
5429;DHT22;2737;52.386;9.980;2022-12-10T11:30:10;-1.20;99.90
5429;DHT22;2737;52.386;9.980;2022-12-10T11:32:51;-1.20;99.90
5429;DHT22;2737;52.386;9.980;2022-12-10T11:35:24;-1.20;99.90
5429;DHT22;2737;52.386;9.980;2022-12-10T11:38:01;-1.10;99.90
5429;DHT22;2737;52.386;9.980;2022-12-10T11:40:35;-1.10;99.90
5429;DHT22;2737;52.386;9.980;2022-12-10T11:43:17;-1.10;99.90
5429;DHT22;2737;52.386;9.980;2022-12-10T11:45:58;-1.00;99.90
5429;DHT22;2737;52.386;9.980;2022-12-10T11:48:36;-1.00;99.90
5429;DHT22;2737;52.386;9.980;2022-12-10T11:51:11;-1.00;99.90
5429;DHT22;2737;52.386;9.980;2022-12-10T11:53:54;-1.00;99.90
5429;DHT22;2737;52.386;9.980;2022-12-10T11:56:26;-1.00;99.90
5429;DHT22;2737;52.386;9.980;2022-12-10T11:59:00;-1.00;99.90
5429;DHT22;2737;52.386;9.980;2022-12-10T12:01:40;-1.00;99.90
5429;DHT22;2737;52.386;9.980;2022-12-10T12:04:25;-0.90;99.90
5429;DHT22;2737;52.386;9.980;2022-12-10T12:07:13;-0.80;99.90
5429;DHT22;2737;52.386;9.980;2022-12-10T12:09:54;-0.80;99.90
5429;DHT22;2737;52.386;9.980;2022-12-10T12:12:32;-0.80;99.90
5429;DHT22;2737;52.386;9.980;2022-12-10T12:15:04;-0.80;99.90
5429;DHT22;2737;52.386;9.980;2022-12-10T12:17:40;-0.80;99.90
5429;DHT22;2737;52.386;9.980;2022-12-10T12:20:15;-0.90;99.90
5429;DHT22;2737;52.386;9.980;2022-12-10T12:22:47;-0.80;99.90
5429;DHT22;2737;52.386;9.980;2022-12-10T12:25:21;-1.00;99.90
5429;DHT22;2737;52.386;9.980;2022-12-10T12:27:52;-1.10;99.90
5429;DHT22;2737;52.386;9.980;2022-12-10T12:30:24;-1.00;99.90
5429;DHT22;2737;52.386;9.980;2022-12-10T12:32:56;-0.90;99.90
5429;DHT22;2737;52.386;9.980;2022-12-10T12:35:33;-0.90;99.90
5429;DHT22;2737;52.386;9.980;2022-12-10T12:38:11;-0.80;99.90
5429;DHT22;2737;52.386;9.980;2022-12-10T12:40:48;-1.00;99.90
5429;DHT22;2737;52.386;9.980;2022-12-10T12:43:21;-1.20;99.90
5429;DHT22;2737;52.386;9.980;2022-12-10T12:45:52;-1.20;99.90
5429;DHT22;2737;52.386;9.980;2022-12-10T12:48:24;-1.10;99.90
5429;DHT22;2737;52.386;9.980;2022-12-10T12:50:58;-1.00;99.90
5429;DHT22;2737;52.386;9.980;2022-12-10T12:53:25;-1.00;99.90
5429;DHT22;2737;52.386;9.980;2022-12-10T12:55:58;-0.80;99.90
5429;DHT22;2737;52.386;9.980;2022-12-10T12:58:33;-0.80;99.90
5429;DHT22;2737;52.386;9.980;2022-12-10T13:01:12;-0.80;99.90
5429;DHT22;2737;52.386;9.980;2022-12-10T13:03:44;-0.80;99.90
5429;DHT22;2737;52.386;9.980;2022-12-10T13:06:20;-0.90;99.90
5429;DHT22;2737;52.386;9.980;2022-12-10T13:08:49;-0.90;99.90
5429;DHT22;2737;52.386;9.980;2022-12-10T13:11:29;-0.90;99.90
5429;DHT22;2737;52.386;9.980;2022-12-10T13:14:15;-1.00;99.90
5429;DHT22;2737;52.386;9.980;2022-12-10T13:16:50;-1.00;99.90
5429;DHT22;2737;52.386;9.980;2022-12-10T13:19:30;-1.00;99.90
5429;DHT22;2737;52.386;9.980;2022-12-10T13:22:00;-1.00;99.90
5429;DHT22;2737;52.386;9.980;2022-12-10T13:27:30;-1.10;99.90
5429;DHT22;2737;52.386;9.980;2022-12-10T13:30:01;-1.00;99.90
5429;DHT22;2737;52.386;9.980;2022-12-10T13:32:44;-1.00;99.90
5429;DHT22;2737;52.386;9.980;2022-12-10T13:35:33;-1.00;99.90
5429;DHT22;2737;52.386;9.980;2022-12-10T13:38:19;-1.00;99.90
5429;DHT22;2737;52.386;9.980;2022-12-10T13:41:00;-1.10;99.90
5429;DHT22;2737;52.386;9.980;2022-12-10T13:43:53;-1.10;99.90
5429;DHT22;2737;52.386;9.980;2022-12-10T13:46:54;-1.10;99.90
5429;DHT22;2737;52.386;9.980;2022-12-10T13:49:23;-1.00;99.90
5429;DHT22;2737;52.386;9.980;2022-12-10T13:51:58;-1.00;99.90
5429;DHT22;2737;52.386;9.980;2022-12-10T13:54:55;-1.00;99.90
5429;DHT22;2737;52.386;9.980;2022-12-10T13:57:49;-1.00;99.90
5429;DHT22;2737;52.386;9.980;2022-12-10T14:00:20;-1.00;99.90
5429;DHT22;2737;52.386;9.980;2022-12-10T14:03:13;-1.00;99.90
5429;DHT22;2737;52.386;9.980;2022-12-10T14:06:01;-1.00;99.90
5429;DHT22;2737;52.386;9.980;2022-12-10T14:08:36;-1.00;99.90
5429;DHT22;2737;52.386;9.980;2022-12-10T14:11:06;-1.00;99.90
5429;DHT22;2737;52.386;9.980;2022-12-10T14:13:41;-1.00;99.90
5429;DHT22;2737;52.386;9.980;2022-12-10T14:16:11;-0.90;99.90
5429;DHT22;2737;52.386;9.980;2022-12-10T14:18:41;-1.00;99.90
5429;DHT22;2737;52.386;9.980;2022-12-10T14:21:10;-1.00;99.90
5429;DHT22;2737;52.386;9.980;2022-12-10T14:23:44;-1.10;99.90
5429;DHT22;2737;52.386;9.980;2022-12-10T14:26:13;-1.10;99.90
5429;DHT22;2737;52.386;9.980;2022-12-10T14:28:42;-1.00;99.90
5429;DHT22;2737;52.386;9.980;2022-12-10T14:31:15;-1.00;99.90
5429;DHT22;2737;52.386;9.980;2022-12-10T14:33:45;-1.00;99.90
5429;DHT22;2737;52.386;9.980;2022-12-10T14:36:19;-1.00;99.90
5429;DHT22;2737;52.386;9.980;2022-12-10T14:38:50;-1.00;99.90
5429;DHT22;2737;52.386;9.980;2022-12-10T14:41:19;-1.00;99.90
5429;DHT22;2737;52.386;9.980;2022-12-10T14:43:48;-0.90;99.90
5429;DHT22;2737;52.386;9.980;2022-12-10T14:46:18;-1.00;99.90
5429;DHT22;2737;52.386;9.980;2022-12-10T14:48:49;-1.00;99.90
5429;DHT22;2737;52.386;9.980;2022-12-10T14:51:19;-1.00;99.90
5429;DHT22;2737;52.386;9.980;2022-12-10T14:53:47;-1.00;99.90
5429;DHT22;2737;52.386;9.980;2022-12-10T14:56:24;-1.00;99.90
5429;DHT22;2737;52.386;9.980;2022-12-10T14:58:57;-1.00;99.90
5429;DHT22;2737;52.386;9.980;2022-12-10T15:01:29;-1.00;99.90
5429;DHT22;2737;52.386;9.980;2022-12-10T15:03:58;-1.00;99.90
5429;DHT22;2737;52.386;9.980;2022-12-10T15:06:27;-1.00;99.90
5429;DHT22;2737;52.386;9.980;2022-12-10T15:08:56;-1.00;99.90
5429;DHT22;2737;52.386;9.980;2022-12-10T15:11:27;-1.00;99.90
5429;DHT22;2737;52.386;9.980;2022-12-10T15:13:57;-1.00;99.90
5429;DHT22;2737;52.386;9.980;2022-12-10T15:16:30;-1.00;99.90
5429;DHT22;2737;52.386;9.980;2022-12-10T15:19:08;-0.90;99.90
5429;DHT22;2737;52.386;9.980;2022-12-10T15:21:41;-1.00;99.90
5429;DHT22;2737;52.386;9.980;2022-12-10T15:24:16;-1.00;99.90
5429;DHT22;2737;52.386;9.980;2022-12-10T15:26:46;-1.00;99.90
5429;DHT22;2737;52.386;9.980;2022-12-10T15:29:34;-1.00;99.90
5429;DHT22;2737;52.386;9.980;2022-12-10T15:32:10;-1.00;99.90
5429;DHT22;2737;52.386;9.980;2022-12-10T15:34:42;-1.00;99.90
5429;DHT22;2737;52.386;9.980;2022-12-10T15:37:21;-1.00;99.90
5429;DHT22;2737;52.386;9.980;2022-12-10T15:39:52;-0.90;99.90
5429;DHT22;2737;52.386;9.980;2022-12-10T15:42:37;-0.90;99.90
5429;DHT22;2737;52.386;9.980;2022-12-10T15:45:15;-0.90;99.90
5429;DHT22;2737;52.386;9.980;2022-12-10T15:47:43;-0.90;99.90
5429;DHT22;2737;52.386;9.980;2022-12-10T15:50:10;-1.00;99.90
5429;DHT22;2737;52.386;9.980;2022-12-10T15:52:37;-1.00;99.90
5429;DHT22;2737;52.386;9.980;2022-12-10T15:55:06;-1.00;99.90
5429;DHT22;2737;52.386;9.980;2022-12-10T15:57:36;-1.00;99.90
5429;DHT22;2737;52.386;9.980;2022-12-10T16:00:06;-1.00;99.90
5429;DHT22;2737;52.386;9.980;2022-12-10T16:02:37;-0.90;99.90
5429;DHT22;2737;52.386;9.980;2022-12-10T16:05:11;-0.90;99.90
5429;DHT22;2737;52.386;9.980;2022-12-10T16:07:39;-0.80;99.90
5429;DHT22;2737;52.386;9.980;2022-12-10T16:10:07;-0.80;99.90
5429;DHT22;2737;52.386;9.980;2022-12-10T16:12:37;-0.80;99.90
5429;DHT22;2737;52.386;9.980;2022-12-10T16:15:05;-0.80;99.90
5429;DHT22;2737;52.386;9.980;2022-12-10T16:17:33;-0.90;99.90
5429;DHT22;2737;52.386;9.980;2022-12-10T16:20:16;-0.90;99.90
5429;DHT22;2737;52.386;9.980;2022-12-10T16:22:44;-0.80;99.90
5429;DHT22;2737;52.386;9.980;2022-12-10T16:25:11;-0.80;99.90
5429;DHT22;2737;52.386;9.980;2022-12-10T16:27:40;-0.90;99.90
5429;DHT22;2737;52.386;9.980;2022-12-10T16:30:14;-0.90;99.90